createdAt,value
2019-04-05T00:00:31.478Z,92.50
2019-04-05T00:01:31.450Z,91.98
2019-04-05T00:02:31.433Z,92.14
2019-04-05T00:03:31.433Z,91.88
2019-04-05T00:04:31.438Z,91.94
2019-04-05T00:05:31.430Z,91.83
2019-04-05T00:06:31.424Z,91.67
2019-04-05T00:07:31.383Z,91.73
2019-04-05T00:08:31.368Z,91.83
2019-04-05T00:09:31.389Z,91.67
2019-04-05T00:10:31.376Z,91.56
2019-04-05T00:11:31.355Z,91.52
2019-04-05T00:12:31.328Z,91.98
2019-04-05T00:13:31.318Z,91.26
2019-04-05T00:14:31.308Z,92.08
2019-04-05T00:15:31.351Z,91.73
2019-04-05T00:16:31.286Z,91.67
2019-04-05T00:17:31.273Z,91.73
2019-04-05T00:18:31.270Z,91.56
2019-04-05T00:19:31.281Z,91.52
2019-04-05T00:20:31.246Z,91.77
2019-04-05T00:21:31.259Z,91.22
2019-04-05T00:22:31.221Z,91.11
2019-04-05T00:23:31.212Z,91.36
2019-04-05T00:24:31.221Z,91.22
2019-04-05T00:25:31.195Z,91.11
2019-04-05T00:26:31.180Z,91.52
2019-04-05T00:27:31.175Z,91.56
2019-04-05T00:28:31.189Z,91.16
2019-04-05T00:29:31.170Z,91.36
2019-04-05T00:30:31.136Z,91.36
2019-04-05T00:31:31.151Z,91.56
2019-04-05T00:32:31.142Z,91.52
2019-04-05T00:33:31.102Z,91.52
2019-04-05T00:34:31.161Z,91.32
2019-04-05T00:35:31.116Z,91.42
2019-04-05T00:36:31.070Z,91.11
2019-04-05T00:37:31.069Z,91.56
2019-04-05T00:38:31.047Z,91.56
2019-04-05T00:39:31.086Z,91.26
2019-04-05T00:40:31.067Z,91.22
2019-04-05T00:41:33.024Z,91.32
2019-04-05T00:42:31.004Z,91.32
2019-04-05T00:43:31.028Z,91.46
2019-04-05T00:44:31.009Z,91.63
2019-04-05T00:45:30.998Z,91.42
2019-04-05T00:46:30.966Z,91.26
2019-04-05T00:47:30.975Z,91.22
2019-04-05T00:48:30.942Z,91.22
2019-04-05T00:49:30.975Z,91.26
2019-04-05T00:50:30.923Z,91.46
2019-04-05T00:51:30.940Z,91.46
2019-04-05T00:52:30.923Z,91.42
2019-04-05T00:53:30.927Z,91.22
2019-04-05T00:54:30.961Z,91.16
2019-04-05T00:55:30.900Z,91.36
2019-04-05T00:56:30.882Z,91.73
2019-04-05T00:57:30.849Z,91.56
2019-04-05T00:58:30.832Z,91.77
2019-04-05T00:59:30.874Z,91.67
2019-04-05T01:00:30.809Z,91.56
2019-04-05T01:01:30.828Z,91.46
2019-04-05T01:02:30.821Z,91.88
2019-04-05T01:03:30.783Z,91.98
2019-04-05T01:04:30.798Z,91.56
2019-04-05T01:05:30.760Z,91.98
2019-04-05T01:06:30.754Z,91.88
2019-04-05T01:07:30.740Z,92.29
2019-04-05T01:08:30.723Z,92.29
2019-04-05T01:09:30.732Z,91.98
2019-04-05T01:10:30.729Z,92.50
2019-04-05T01:11:30.698Z,92.29
2019-04-05T01:12:32.064Z,91.88
2019-04-05T01:13:30.671Z,91.67
2019-04-05T01:14:30.665Z,92.19
2019-04-05T01:15:40.267Z,92.64
2019-04-05T01:16:31.640Z,92.33
2019-04-05T01:17:30.627Z,92.29
2019-04-05T01:18:30.621Z,92.13
2019-04-05T01:19:30.613Z,92.19
2019-04-05T01:20:30.623Z,92.74
2019-04-05T01:21:30.591Z,92.91
2019-04-05T01:22:30.607Z,92.60
2019-04-05T01:23:30.569Z,93.01
2019-04-05T01:24:30.554Z,92.91
2019-04-05T01:25:30.583Z,92.80
2019-04-05T01:26:30.532Z,92.91
2019-04-05T01:27:30.528Z,92.19
2019-04-05T01:28:30.511Z,92.60
2019-04-05T01:29:30.536Z,92.50
2019-04-05T01:30:30.519Z,92.40
2019-04-05T01:31:30.509Z,92.29
2019-04-05T01:32:30.470Z,92.40
2019-04-05T01:33:30.462Z,92.50
2019-04-05T01:34:30.452Z,92.29
2019-04-05T01:35:30.463Z,92.08
2019-04-05T01:36:30.455Z,92.23
2019-04-05T01:37:30.416Z,92.54
2019-04-05T01:38:30.403Z,92.13
2019-04-05T01:39:30.394Z,92.33
2019-04-05T01:40:30.404Z,92.64
2019-04-05T01:41:30.376Z,92.91
2019-04-05T01:42:30.360Z,92.54
2019-04-05T01:43:30.371Z,92.64
2019-04-05T01:44:30.340Z,92.54
2019-04-05T01:45:30.359Z,92.54
2019-04-05T01:46:30.321Z,92.23
2019-04-05T01:47:30.312Z,92.44
2019-04-05T01:48:30.308Z,92.95
2019-04-05T01:49:30.305Z,92.64
2019-04-05T01:50:30.309Z,92.80
2019-04-05T01:51:30.265Z,92.74
2019-04-05T01:52:30.258Z,92.64
2019-04-05T01:53:30.249Z,92.85
2019-04-05T01:54:30.240Z,92.74
2019-04-05T01:55:30.274Z,92.54
2019-04-05T01:56:30.215Z,92.74
2019-04-05T01:57:30.202Z,92.85
2019-04-05T01:58:30.192Z,92.95
2019-04-05T01:59:30.179Z,92.64
2019-04-05T02:00:30.195Z,93.37
2019-04-05T02:01:30.172Z,92.85
2019-04-05T02:02:30.150Z,92.95
2019-04-05T02:03:30.139Z,93.26
2019-04-05T02:04:30.129Z,92.95
2019-04-05T02:05:30.148Z,93.68
2019-04-05T02:06:30.147Z,93.57
2019-04-05T02:07:30.093Z,92.95
2019-04-05T02:08:30.085Z,92.95
2019-04-05T02:09:30.101Z,93.05
2019-04-05T02:10:30.062Z,93.37
2019-04-05T02:11:30.052Z,92.85
2019-04-05T02:12:30.070Z,93.16
2019-04-05T02:13:30.033Z,93.05
2019-04-05T02:14:30.021Z,93.05
2019-04-05T02:15:30.046Z,93.78
2019-04-05T02:16:29.999Z,93.37
2019-04-05T02:17:30.012Z,93.37
2019-04-05T02:18:29.989Z,93.16
2019-04-05T02:19:29.965Z,93.47
2019-04-05T02:20:29.994Z,93.68
2019-04-05T02:21:29.960Z,93.68
2019-04-05T02:22:29.932Z,93.68
2019-04-05T02:23:29.922Z,93.47
2019-04-05T02:24:29.929Z,93.88
2019-04-05T02:25:29.930Z,93.26
2019-04-05T02:26:29.893Z,93.37
2019-04-05T02:27:29.881Z,93.68
2019-04-05T02:28:29.916Z,92.91
2019-04-05T02:29:29.908Z,92.95
2019-04-05T02:30:29.885Z,93.01
2019-04-05T02:31:29.837Z,93.22
2019-04-05T02:32:29.907Z,93.05
2019-04-05T02:33:29.871Z,93.01
2019-04-05T02:34:29.829Z,92.80
2019-04-05T02:35:29.830Z,93.32
2019-04-05T02:36:29.790Z,93.32
2019-04-05T02:37:29.802Z,93.12
2019-04-05T02:38:29.819Z,92.80
2019-04-05T02:39:29.800Z,93.32
2019-04-05T02:40:29.772Z,92.91
2019-04-05T02:41:29.761Z,92.80
2019-04-05T02:42:29.783Z,92.80
2019-04-05T02:43:29.756Z,92.19
2019-04-05T02:44:29.728Z,92.60
2019-04-05T02:45:29.718Z,92.19
2019-04-05T02:46:29.692Z,92.19
2019-04-05T02:47:29.695Z,92.70
2019-04-05T02:48:29.663Z,92.70
2019-04-05T02:49:29.650Z,92.70
2019-04-05T02:50:29.646Z,92.40
2019-04-05T02:51:29.649Z,91.88
2019-04-05T02:52:29.639Z,92.70
2019-04-05T02:53:29.607Z,92.50
2019-04-05T02:54:29.615Z,92.60
2019-04-05T02:55:29.592Z,92.60
2019-04-05T02:56:29.604Z,92.60
2019-04-05T02:57:29.565Z,92.70
2019-04-05T02:58:29.553Z,92.29
2019-04-05T02:59:29.545Z,92.19
2019-04-05T03:01:46.436Z,92.80
2019-04-05T03:02:46.377Z,92.60
2019-04-05T03:03:46.406Z,92.44
2019-04-05T03:04:46.359Z,92.40
2019-04-05T03:05:46.347Z,92.74
2019-04-05T03:06:46.351Z,92.23
2019-04-05T03:07:46.344Z,92.85
2019-04-05T03:08:46.414Z,92.95
2019-04-05T03:09:46.301Z,92.64
2019-04-05T03:10:46.297Z,93.16
2019-04-05T03:11:46.337Z,92.95
2019-04-05T03:12:46.278Z,93.37
2019-04-05T03:13:46.261Z,93.05
2019-04-05T03:14:46.252Z,92.85
2019-04-05T03:15:46.241Z,93.78
2019-04-05T03:16:46.254Z,93.26
2019-04-05T03:17:46.237Z,93.37
2019-04-05T03:18:46.208Z,93.47
2019-04-05T03:19:46.195Z,93.16
2019-04-05T03:20:46.185Z,92.95
2019-04-05T03:21:46.215Z,93.16
2019-04-05T03:22:46.167Z,93.05
2019-04-05T03:23:46.175Z,93.05
2019-04-05T03:24:46.145Z,93.57
2019-04-05T03:25:48.139Z,93.26
2019-04-05T03:26:46.180Z,93.57
2019-04-05T03:27:46.150Z,93.37
2019-04-05T03:28:46.101Z,93.93
2019-04-05T03:29:46.118Z,93.98
2019-04-05T03:30:46.093Z,94.13
2019-04-05T03:31:46.097Z,93.93
2019-04-05T03:32:46.058Z,93.98
2019-04-05T03:33:46.050Z,93.93
2019-04-05T03:34:46.092Z,93.93
2019-04-05T03:35:46.026Z,94.03
2019-04-05T03:36:46.025Z,94.13
2019-04-05T03:37:46.034Z,93.82
2019-04-05T03:38:45.995Z,93.82
2019-04-05T03:39:45.988Z,93.93
2019-04-05T03:40:46.006Z,94.03
2019-04-05T03:41:45.961Z,93.82
2019-04-05T03:42:45.977Z,94.13
2019-04-05T03:43:45.942Z,94.03
2019-04-05T03:44:45.928Z,94.23
2019-04-05T03:45:45.926Z,94.54
2019-04-05T03:46:56.585Z,94.54
2019-04-05T03:47:46.895Z,94.65
2019-04-05T03:48:45.889Z,94.54
2019-04-05T03:49:45.908Z,94.54
2019-04-05T03:50:46.002Z,94.54
2019-04-05T03:51:45.946Z,94.34
2019-04-05T03:52:45.866Z,94.34
2019-04-05T03:53:45.836Z,94.34
2019-04-05T03:54:45.825Z,94.34
2019-04-05T03:55:45.813Z,94.65
2019-04-05T03:56:45.833Z,94.54
2019-04-05T03:57:45.789Z,94.34
2019-04-05T03:58:45.807Z,94.54
2019-04-05T03:59:45.770Z,94.23
2019-04-05T04:00:45.760Z,94.65
2019-04-05T04:01:45.834Z,94.54
2019-04-05T04:02:45.764Z,94.54
2019-04-05T04:03:45.771Z,94.13
2019-04-05T04:04:45.727Z,94.13
2019-04-05T04:05:45.708Z,94.75
2019-04-05T04:06:45.716Z,94.54
2019-04-05T04:07:45.689Z,94.54
2019-04-05T04:08:45.681Z,94.65
2019-04-05T04:09:45.666Z,94.48
2019-04-05T04:10:45.681Z,94.34
2019-04-05T04:11:45.669Z,94.54
2019-04-05T04:12:45.648Z,94.69
2019-04-05T04:13:45.639Z,94.54
2019-04-05T04:14:45.631Z,94.54
2019-04-05T04:15:45.620Z,94.65
2019-04-05T04:16:45.674Z,94.54
2019-04-05T04:17:45.603Z,94.85
2019-04-05T04:18:45.560Z,94.54
2019-04-05T04:19:45.566Z,94.54
2019-04-05T04:20:45.551Z,94.65
2019-04-05T04:21:45.541Z,94.54
2019-04-05T04:22:48.499Z,94.65
2019-04-05T04:23:45.508Z,94.23
2019-04-05T04:24:45.501Z,94.44
2019-04-05T04:25:45.486Z,94.13
2019-04-05T04:26:45.473Z,93.72
2019-04-05T04:27:45.536Z,93.82
2019-04-05T04:28:45.452Z,93.93
2019-04-05T04:29:45.441Z,94.03
2019-04-05T04:30:45.436Z,94.34
2019-04-05T04:31:45.422Z,94.85
2019-04-05T04:32:45.466Z,94.75
2019-04-05T04:33:45.397Z,94.54
2019-04-05T04:34:45.390Z,94.34
2019-04-05T04:35:45.375Z,94.65
2019-04-05T04:36:45.362Z,94.65
2019-04-05T04:37:45.379Z,94.54
2019-04-05T04:38:45.363Z,94.54
2019-04-05T04:39:45.333Z,94.23
2019-04-05T04:40:45.325Z,94.13
2019-04-05T04:41:45.339Z,94.23
2019-04-05T04:42:45.304Z,94.23
2019-04-05T04:43:45.311Z,94.75
2019-04-05T04:44:45.300Z,94.65
2019-04-05T04:45:45.271Z,94.65
2019-04-05T04:46:47.986Z,94.65
2019-04-05T04:47:45.298Z,94.75
2019-04-05T04:48:45.236Z,94.65
2019-04-05T04:49:45.249Z,94.75
2019-04-05T04:50:45.238Z,94.75
2019-04-05T04:51:45.202Z,94.75
2019-04-05T04:52:45.215Z,94.75
2019-04-05T04:53:45.188Z,94.54
2019-04-05T04:54:45.171Z,94.65
2019-04-05T04:55:45.164Z,94.23
2019-04-05T04:56:45.146Z,94.54
2019-04-05T04:57:45.229Z,94.34
2019-04-05T04:58:46.394Z,94.85
2019-04-05T04:59:45.112Z,93.93
2019-04-05T05:00:45.107Z,93.93
2019-04-05T05:01:45.143Z,93.82
2019-04-05T05:02:45.418Z,94.03
2019-04-05T05:03:45.069Z,93.93
2019-04-05T05:04:45.060Z,93.72
2019-04-05T05:05:45.047Z,94.03
2019-04-05T05:06:45.040Z,93.93
2019-04-05T05:07:45.051Z,94.13
2019-04-05T05:08:45.019Z,94.13
2019-04-05T05:09:45.023Z,93.20
2019-04-05T05:10:44.999Z,93.20
2019-04-05T05:11:44.984Z,93.41
2019-04-05T05:12:45.031Z,93.30
2019-04-05T05:13:44.980Z,93.30
2019-04-05T05:14:44.957Z,93.20
2019-04-05T05:15:44.943Z,93.20
2019-04-05T05:16:44.926Z,93.16
2019-04-05T05:17:44.969Z,93.10
2019-04-05T05:18:44.952Z,92.99
2019-04-05T05:19:44.896Z,93.41
2019-04-05T05:20:44.883Z,93.41
2019-04-05T05:21:44.875Z,93.51
2019-04-05T05:22:44.889Z,93.72
2019-04-05T05:23:44.850Z,93.82
2019-04-05T05:24:44.841Z,93.41
2019-04-05T05:25:46.911Z,92.99
2019-04-05T05:26:44.819Z,92.89
2019-04-05T05:27:44.837Z,93.41
2019-04-05T05:28:44.826Z,93.30
2019-04-05T05:29:44.793Z,93.30
2019-04-05T05:30:44.780Z,93.51
2019-04-05T05:31:44.795Z,93.62
2019-04-05T05:32:44.793Z,93.41
2019-04-05T05:33:44.751Z,93.41
2019-04-05T05:34:44.733Z,93.41
2019-04-05T05:35:44.726Z,93.51
2019-04-05T05:36:44.744Z,93.10
2019-04-05T05:37:44.727Z,93.20
2019-04-05T05:38:44.696Z,93.20
2019-04-05T05:39:44.686Z,93.47
2019-04-05T05:40:44.675Z,93.68
2019-04-05T05:41:44.666Z,93.62
2019-04-05T05:42:44.694Z,92.89
2019-04-05T05:43:44.942Z,92.99
2019-04-05T05:44:44.635Z,93.41
2019-04-05T05:45:44.619Z,92.48
2019-04-05T05:46:44.624Z,92.85
2019-04-05T05:47:51.765Z,92.79
2019-04-05T05:48:45.592Z,92.48
2019-04-05T05:49:44.604Z,92.64
2019-04-05T05:50:44.561Z,92.68
2019-04-05T05:51:44.552Z,92.68
2019-04-05T05:52:44.545Z,92.58
2019-04-05T05:53:44.580Z,92.89
2019-04-05T05:54:44.588Z,92.27
2019-04-05T05:55:44.513Z,92.38
2019-04-05T05:56:44.503Z,93.41
2019-04-05T05:57:44.490Z,92.89
2019-04-05T05:58:44.535Z,93.30
2019-04-05T05:59:44.468Z,93.41
2019-04-05T06:00:44.483Z,93.47
2019-04-05T06:01:44.449Z,93.68
2019-04-05T06:02:44.468Z,93.37
2019-04-05T06:03:44.429Z,93.26
2019-04-05T06:04:44.449Z,93.37
2019-04-05T06:05:44.408Z,93.47
2019-04-05T06:06:44.415Z,93.32
2019-04-05T06:07:44.388Z,92.95
2019-04-05T06:08:44.378Z,93.37
2019-04-05T06:09:47.541Z,93.37
2019-04-05T06:10:44.388Z,93.05
2019-04-05T06:11:44.364Z,92.95
2019-04-05T06:12:44.349Z,93.47
2019-04-05T06:13:44.322Z,93.37
2019-04-05T06:14:44.316Z,92.95
2019-04-05T06:15:44.335Z,93.05
2019-04-05T06:16:46.624Z,92.54
2019-04-05T06:17:44.306Z,92.64
2019-04-05T06:18:44.295Z,92.54
2019-04-05T06:19:44.260Z,93.26
2019-04-05T06:20:44.254Z,93.37
2019-04-05T06:21:44.241Z,92.54
2019-04-05T06:22:47.442Z,92.54
2019-04-05T06:23:44.233Z,92.64
2019-04-05T06:24:44.234Z,92.54
2019-04-05T06:25:44.238Z,92.74
2019-04-05T06:26:44.213Z,92.64
2019-04-05T06:27:44.198Z,92.64
2019-04-05T06:28:44.286Z,92.23
2019-04-05T06:29:44.204Z,92.54
2019-04-05T06:30:44.148Z,92.64
2019-04-05T06:31:44.145Z,92.95
2019-04-05T06:32:44.131Z,92.64
2019-04-05T06:33:44.113Z,92.44
2019-04-05T06:34:44.105Z,92.33
2019-04-05T06:35:44.154Z,92.54
2019-04-05T06:36:44.083Z,92.85
2019-04-05T06:37:44.085Z,92.85
2019-04-05T06:38:44.063Z,92.95
2019-04-05T06:39:44.072Z,92.74
2019-04-05T06:40:44.034Z,92.74
2019-04-05T06:41:44.032Z,92.13
2019-04-05T06:42:44.043Z,92.13
2019-04-05T06:43:44.033Z,92.23
2019-04-05T06:44:43.994Z,92.33
2019-04-05T06:45:44.041Z,92.74
2019-04-05T06:46:43.975Z,92.64
2019-04-05T06:47:43.967Z,92.23
2019-04-05T06:48:43.981Z,92.29
2019-04-05T06:49:43.970Z,92.54
2019-04-05T06:50:47.050Z,92.74
2019-04-05T06:51:43.921Z,92.70
2019-04-05T06:52:43.933Z,92.74
2019-04-05T06:53:43.904Z,92.23
2019-04-05T06:54:43.886Z,92.13
2019-04-05T06:55:43.896Z,92.33
2019-04-05T06:56:43.866Z,92.23
2019-04-05T06:57:43.880Z,92.23
2019-04-05T06:58:46.314Z,92.85
2019-04-05T06:59:43.843Z,92.85
2019-04-05T07:00:56.444Z,92.80
2019-04-05T07:01:44.819Z,92.23
2019-04-05T07:02:43.832Z,92.64
2019-04-05T07:03:43.805Z,92.54
2019-04-05T07:04:43.785Z,92.33
2019-04-05T07:05:43.773Z,92.95
2019-04-05T07:06:43.775Z,92.13
2019-04-05T07:07:43.797Z,92.74
2019-04-05T07:08:53.058Z,92.85
2019-04-05T07:09:44.756Z,92.54
2019-04-05T07:10:45.144Z,92.91
2019-04-05T07:11:43.705Z,92.70
2019-04-05T07:12:43.764Z,92.33
2019-04-05T07:13:43.750Z,92.19
2019-04-05T07:14:43.675Z,92.40
2019-04-05T07:15:43.663Z,91.77
2019-04-05T07:16:43.653Z,92.40
2019-04-05T07:17:43.641Z,92.29
2019-04-05T07:18:43.659Z,92.60
2019-04-05T07:19:43.677Z,91.77
2019-04-05T07:20:43.609Z,91.26
2019-04-05T07:21:43.604Z,91.16
2019-04-05T07:22:43.592Z,91.56
2019-04-05T07:23:43.609Z,91.88
2019-04-05T07:24:43.582Z,91.82
2019-04-05T07:25:43.567Z,91.56
2019-04-05T07:26:43.548Z,91.67
2019-04-05T07:27:43.563Z,91.67
2019-04-05T07:28:43.526Z,91.67
2019-04-05T07:29:43.742Z,91.36
2019-04-05T07:30:43.507Z,91.16
2019-04-05T07:31:43.524Z,91.26
2019-04-05T07:32:43.487Z,91.46
2019-04-05T07:33:43.474Z,91.52
2019-04-05T07:34:43.495Z,91.77
2019-04-05T07:35:43.503Z,91.98
2019-04-05T07:36:43.481Z,91.11
2019-04-05T07:37:43.455Z,91.42
2019-04-05T07:38:43.466Z,91.63
2019-04-05T07:39:43.471Z,90.80
2019-04-05T07:40:43.428Z,91.17
2019-04-05T07:41:43.426Z,91.28
2019-04-05T07:42:43.407Z,90.91
2019-04-05T07:43:43.424Z,90.70
2019-04-05T07:44:43.378Z,90.45
2019-04-05T07:45:45.875Z,90.25
2019-04-05T07:46:46.334Z,90.04
2019-04-05T07:47:43.325Z,90.04
2019-04-05T07:48:45.244Z,89.94
2019-04-05T07:49:43.322Z,90.04
2019-04-05T07:50:43.297Z,90.35
2019-04-05T07:51:43.282Z,90.25
2019-04-05T07:52:43.295Z,90.25
2019-04-05T07:53:43.263Z,89.62
2019-04-05T07:54:43.248Z,89.52
2019-04-05T07:55:43.239Z,90.14
2019-04-05T07:56:46.051Z,89.32
2019-04-05T07:57:43.266Z,90.35
2019-04-05T07:58:43.214Z,89.79
2019-04-05T07:59:43.215Z,89.28
2019-04-05T08:00:43.183Z,88.39
2019-04-05T08:01:43.194Z,89.07
2019-04-05T08:02:43.173Z,89.07
2019-04-05T08:03:43.182Z,89.07
2019-04-05T08:04:43.146Z,89.79
2019-04-05T08:05:43.149Z,89.38
2019-04-05T08:06:43.119Z,88.96
2019-04-05T08:07:43.109Z,88.96
2019-04-05T08:08:43.133Z,89.44
2019-04-05T08:09:43.096Z,88.56
2019-04-05T08:10:43.075Z,87.90
2019-04-05T08:11:43.067Z,88.41
2019-04-05T08:12:43.095Z,87.99
2019-04-05T08:13:43.052Z,88.41
2019-04-05T08:14:43.056Z,87.99
2019-04-05T08:15:43.024Z,88.41
2019-04-05T08:16:43.017Z,88.41
2019-04-05T08:17:43.035Z,88.37
2019-04-05T08:18:42.994Z,88.41
2019-04-05T08:19:42.978Z,87.27
2019-04-05T08:20:42.967Z,87.48
2019-04-05T08:21:42.962Z,87.07
2019-04-05T08:22:42.957Z,86.66
2019-04-05T08:23:42.973Z,86.97
2019-04-05T08:24:42.928Z,86.87
2019-04-05T08:25:42.913Z,87.07
2019-04-05T08:26:42.928Z,86.87
2019-04-05T08:27:42.898Z,87.07
2019-04-05T08:28:42.917Z,86.15
2019-04-05T08:29:42.882Z,87.17
2019-04-05T08:30:42.861Z,86.93
2019-04-05T08:31:42.849Z,87.17
2019-04-05T08:32:42.844Z,86.76
2019-04-05T08:33:42.857Z,87.07
2019-04-05T08:34:42.823Z,86.52
2019-04-05T08:35:42.806Z,86.41
2019-04-05T08:36:42.805Z,86.41
2019-04-05T08:37:42.786Z,86.24
2019-04-05T08:38:42.814Z,86.55
2019-04-05T08:39:42.768Z,86.87
2019-04-05T08:40:42.777Z,86.97
2019-04-05T08:41:42.773Z,86.87
2019-04-05T08:42:42.762Z,87.07
2019-04-05T08:43:42.786Z,86.87
2019-04-05T08:44:42.716Z,87.17
2019-04-05T08:45:42.700Z,87.52
2019-04-05T08:46:42.701Z,86.80
2019-04-05T08:47:42.681Z,87.32
2019-04-05T08:48:42.669Z,87.42
2019-04-05T08:49:42.679Z,88.24
2019-04-05T08:50:42.644Z,87.73
2019-04-05T08:51:42.638Z,88.35
2019-04-05T08:52:42.629Z,88.35
2019-04-05T08:53:42.611Z,88.24
2019-04-05T08:54:42.633Z,88.14
2019-04-05T08:55:42.600Z,88.10
2019-04-05T08:56:42.579Z,88.62
2019-04-05T08:57:42.570Z,88.41
2019-04-05T08:58:42.566Z,88.31
2019-04-05T08:59:42.581Z,87.59
2019-04-05T09:00:42.535Z,87.69
2019-04-05T09:01:42.539Z,87.27
2019-04-05T09:02:42.545Z,87.27
2019-04-05T09:03:42.506Z,86.55
2019-04-05T09:04:42.521Z,87.27
2019-04-05T09:05:42.496Z,87.07
2019-04-05T09:06:42.493Z,87.27
2019-04-05T09:07:42.503Z,86.76
2019-04-05T09:08:42.453Z,86.76
2019-04-05T09:09:42.481Z,87.07
2019-04-05T09:10:42.433Z,86.45
2019-04-05T09:11:42.480Z,86.04
2019-04-05T09:12:42.407Z,85.73
2019-04-05T09:13:42.420Z,85.52
2019-04-05T09:14:42.409Z,86.35
2019-04-05T09:15:42.396Z,86.61
2019-04-05T09:16:42.364Z,86.72
2019-04-05T09:17:42.346Z,86.82
2019-04-05T09:18:42.348Z,85.89
2019-04-05T09:19:42.403Z,84.83
2019-04-05T09:20:42.352Z,85.07
2019-04-05T09:21:42.335Z,85.59
2019-04-05T09:22:42.297Z,85.49
2019-04-05T09:23:42.280Z,86.99
2019-04-05T09:24:42.331Z,87.03
2019-04-05T09:25:42.289Z,86.21
2019-04-05T09:26:42.254Z,84.66
2019-04-05T09:27:42.233Z,85.28
2019-04-05T09:28:42.251Z,85.49
2019-04-05T09:29:42.267Z,83.94
2019-04-05T09:30:42.301Z,84.14
2019-04-05T09:31:42.192Z,84.66
2019-04-05T09:32:42.186Z,85.28
2019-04-05T09:33:42.168Z,85.28
2019-04-05T09:34:42.179Z,84.14
2019-04-05T09:35:42.144Z,83.32
2019-04-05T09:36:42.130Z,83.42
2019-04-05T09:37:42.127Z,83.53
2019-04-05T09:38:42.189Z,84.45
2019-04-05T09:39:42.131Z,84.05
2019-04-05T09:40:42.099Z,83.90
2019-04-05T09:41:42.106Z,83.63
2019-04-05T09:42:42.069Z,83.32
2019-04-05T09:43:42.056Z,83.22
2019-04-05T09:44:42.090Z,83.63
2019-04-05T09:45:42.031Z,83.42
2019-04-05T09:46:47.228Z,83.84
2019-04-05T09:47:43.005Z,83.63
2019-04-05T09:48:42.031Z,83.84
2019-04-05T09:49:42.037Z,83.63
2019-04-05T09:50:41.975Z,83.28
2019-04-05T09:51:41.965Z,83.59
2019-04-05T09:52:41.954Z,82.97
2019-04-05T09:53:41.952Z,82.87
2019-04-05T09:54:41.951Z,82.67
2019-04-05T09:55:41.957Z,82.46
2019-04-05T09:56:41.908Z,81.63
2019-04-05T09:57:41.897Z,82.46
2019-04-05T09:58:41.887Z,82.46
2019-04-05T09:59:41.902Z,82.15
2019-04-05T10:00:41.875Z,81.74
2019-04-05T10:01:41.866Z,82.05
2019-04-05T10:02:41.856Z,82.15
2019-04-05T10:03:41.825Z,82.05
2019-04-05T10:04:41.845Z,83.18
2019-04-05T10:05:41.809Z,82.77
2019-04-05T10:06:41.806Z,81.74
2019-04-05T10:07:54.187Z,83.28
2019-04-05T10:08:42.826Z,82.46
2019-04-05T10:09:41.770Z,82.25
2019-04-05T10:10:41.751Z,82.46
2019-04-05T10:11:41.740Z,82.77
2019-04-05T10:12:41.747Z,83.39
2019-04-05T10:13:41.726Z,82.97
2019-04-05T10:14:41.730Z,82.97
2019-04-05T10:15:41.695Z,83.07
2019-04-05T10:16:41.688Z,82.87
2019-04-05T10:17:41.675Z,83.49
2019-04-05T10:18:41.685Z,83.28
2019-04-05T10:19:49.666Z,83.49
2019-04-05T10:20:42.677Z,83.70
2019-04-05T10:21:41.629Z,83.07
2019-04-05T10:22:41.633Z,82.67
2019-04-05T10:23:41.609Z,82.97
2019-04-05T10:24:41.650Z,81.74
2019-04-05T10:25:43.915Z,82.40
2019-04-05T10:26:41.575Z,82.81
2019-04-05T10:27:41.595Z,83.12
2019-04-05T10:28:41.553Z,82.50
2019-04-05T10:29:41.542Z,83.01
2019-04-05T10:30:41.577Z,83.12
2019-04-05T10:31:41.541Z,82.29
2019-04-05T10:32:41.511Z,83.01
2019-04-05T10:33:41.514Z,82.81
2019-04-05T10:34:41.488Z,83.12
2019-04-05T10:35:41.523Z,82.77
2019-04-05T10:36:41.484Z,82.46
2019-04-05T10:37:41.456Z,82.46
2019-04-05T10:38:41.445Z,82.67
2019-04-05T10:39:41.438Z,82.15
2019-04-05T10:40:41.462Z,82.46
2019-04-05T10:41:41.416Z,82.35
2019-04-05T10:42:41.424Z,81.95
2019-04-05T10:43:41.394Z,82.05
2019-04-05T10:44:41.381Z,81.23
2019-04-05T10:45:41.415Z,81.70
2019-04-05T10:46:41.358Z,81.95
2019-04-05T10:47:41.349Z,82.35
2019-04-05T10:48:41.346Z,82.56
2019-04-05T10:49:41.322Z,82.05
2019-04-05T10:50:41.339Z,82.35
2019-04-05T10:51:41.309Z,82.46
2019-04-05T10:52:41.317Z,82.35
2019-04-05T10:53:41.279Z,82.35
2019-04-05T10:54:41.293Z,81.74
2019-04-05T10:55:41.279Z,81.33
2019-04-05T10:56:41.249Z,81.63
2019-04-05T10:57:41.236Z,81.33
2019-04-05T10:58:41.223Z,80.91
2019-04-05T10:59:41.218Z,80.81
2019-04-05T11:00:41.212Z,81.53
2019-04-05T11:01:41.263Z,81.33
2019-04-05T11:02:41.176Z,81.33
2019-04-05T11:03:41.200Z,81.53
2019-04-05T11:04:41.184Z,81.84
2019-04-05T11:05:41.197Z,81.74
2019-04-05T11:06:41.201Z,81.63
2019-04-05T11:07:41.142Z,81.39
2019-04-05T11:08:41.133Z,81.60
2019-04-05T11:09:41.129Z,81.70
2019-04-05T11:10:41.141Z,80.98
2019-04-05T11:11:41.089Z,81.33
2019-04-05T11:12:41.066Z,81.60
2019-04-05T11:13:41.087Z,80.77
2019-04-05T11:14:41.068Z,80.81
2019-04-05T11:15:41.098Z,80.71
2019-04-05T11:16:41.021Z,81.49
2019-04-05T11:17:42.468Z,81.29
2019-04-05T11:18:41.027Z,81.19
2019-04-05T11:19:41.000Z,81.70
2019-04-05T11:20:41.005Z,81.39
2019-04-05T11:21:40.975Z,81.39
2019-04-05T11:22:40.965Z,81.91
2019-04-05T11:23:40.972Z,82.01
2019-04-05T11:24:40.945Z,81.70
2019-04-05T11:25:40.966Z,82.11
2019-04-05T11:26:40.913Z,82.11
2019-04-05T11:27:40.911Z,82.42
2019-04-05T11:28:40.889Z,82.28
2019-04-05T11:29:40.900Z,81.49
2019-04-05T11:30:40.879Z,81.39
2019-04-05T11:31:40.887Z,82.01
2019-04-05T11:32:40.847Z,81.87
2019-04-05T11:33:40.838Z,82.42
2019-04-05T11:34:40.851Z,81.05
2019-04-05T11:35:40.842Z,81.91
2019-04-05T11:36:40.800Z,81.67
2019-04-05T11:37:40.792Z,81.67
2019-04-05T11:38:40.811Z,81.70
2019-04-05T11:39:40.771Z,81.35
2019-04-05T11:40:40.810Z,81.49
2019-04-05T11:41:40.754Z,81.39
2019-04-05T11:42:40.737Z,82.01
2019-04-05T11:43:40.726Z,81.15
2019-04-05T11:44:40.715Z,80.77
2019-04-05T11:45:40.704Z,80.67
2019-04-05T11:46:40.730Z,81.29
2019-04-05T11:47:40.690Z,81.49
2019-04-05T11:48:41.362Z,81.29
2019-04-05T11:49:40.663Z,80.77
2019-04-05T11:50:40.674Z,81.25
2019-04-05T11:51:43.070Z,81.76
2019-04-05T11:52:40.661Z,80.74
2019-04-05T11:53:40.620Z,81.19
2019-04-05T11:54:40.637Z,81.87
2019-04-05T11:55:40.603Z,82.01
2019-04-05T11:56:40.616Z,81.05
2019-04-05T11:57:41.447Z,81.76
2019-04-05T11:58:40.600Z,82.28
2019-04-05T11:59:40.555Z,81.76
2019-04-05T12:00:40.539Z,81.35
2019-04-05T12:01:40.555Z,81.67
2019-04-05T12:02:40.519Z,81.67
2019-04-05T12:03:40.524Z,81.56
2019-04-05T12:04:42.850Z,82.18
2019-04-05T12:05:40.489Z,82.28
2019-04-05T12:06:40.498Z,81.97
2019-04-05T12:07:40.463Z,81.56
2019-04-05T12:08:40.455Z,81.76
2019-04-05T12:09:40.454Z,81.35
2019-04-05T12:10:40.435Z,81.46
2019-04-05T12:11:40.444Z,80.74
2019-04-05T12:12:40.411Z,80.63
2019-04-05T12:13:40.400Z,80.63
2019-04-05T12:14:40.391Z,80.63
2019-04-05T12:15:40.423Z,80.84
2019-04-05T12:16:40.386Z,80.33
2019-04-05T12:17:40.359Z,81.05
2019-04-05T12:18:40.343Z,80.94
2019-04-05T12:19:40.386Z,81.35
2019-04-05T12:20:49.388Z,81.76
2019-04-05T12:21:41.386Z,80.84
2019-04-05T12:22:40.305Z,80.74
2019-04-05T12:23:40.319Z,81.25
2019-04-05T12:24:40.293Z,81.29
2019-04-05T12:25:40.273Z,81.49
2019-04-05T12:26:42.627Z,81.67
2019-04-05T12:27:40.253Z,81.25
2019-04-05T12:28:40.238Z,81.76
2019-04-05T12:29:40.226Z,82.07
2019-04-05T12:30:40.252Z,81.67
2019-04-05T12:31:40.248Z,81.35
2019-04-05T12:32:41.540Z,82.07
2019-04-05T12:33:40.190Z,82.18
2019-04-05T12:34:40.172Z,82.18
2019-04-05T12:35:40.162Z,81.67
2019-04-05T12:36:40.194Z,81.97
2019-04-05T12:37:50.040Z,81.87
2019-04-05T12:38:41.121Z,81.87
2019-04-05T12:39:40.518Z,81.87
2019-04-05T12:40:40.668Z,81.67
2019-04-05T12:41:40.884Z,80.63
2019-04-05T12:42:42.715Z,81.25
2019-04-05T12:43:43.819Z,81.35
2019-04-05T12:44:40.092Z,81.67
2019-04-05T12:45:40.051Z,81.15
2019-04-05T12:46:40.064Z,81.56
2019-04-05T12:47:40.070Z,82.07
2019-04-05T12:48:40.095Z,82.28
2019-04-05T12:49:40.008Z,81.67
2019-04-05T12:50:40.049Z,81.83
2019-04-05T12:51:40.058Z,81.87
2019-04-05T12:52:40.006Z,80.94
2019-04-05T12:53:39.963Z,81.56